This is the latest recevied weather packets stored in our database for station/object N1JOV-7. If no packets are shown the sender has not sent any weather packets the latest 10 day(s).
| Time | Temp. | Humidity | Pressure | Rain* | Wind** | Luminosity | Snow |
|---|---|---|---|---|---|---|---|
| 1777228262 | 15° C | 49% | 1020.6 hPa | 0 mm | - | - | - |
| 1777227662 | 16.11° C | 47% | 1020.7 hPa | 0 mm | - | - | - |
| 1777227061 | 16.11° C | 46% | 1020.6 hPa | 0 mm | - | - | - |
| 1777226461 | 16.67° C | 46% | 1020.5 hPa | 0 mm | - | - | - |
| 1777225861 | 18.33° C | 44% | 1020.5 hPa | 0 mm | - | - | - |
| 1777225262 | 18.33° C | 45% | 1020.5 hPa | 0 mm | - | - | - |
| 1777224662 | 19.44° C | 44% | 1020.4 hPa | 0 mm | - | - | - |
| 1777224062 | 18.89° C | 42% | 1020.3 hPa | 0 mm | - | - | - |
| 1777223462 | 17.78° C | 43% | 1020.3 hPa | 0 mm | - | - | - |
| 1777222862 | 17.78° C | 43% | 1020.3 hPa | 0 mm | - | - | - |
| 1777222262 | 17.78° C | 43% | 1020.4 hPa | 0 mm | - | - | - |
| 1777221661 | 17.78° C | 44% | 1020.5 hPa | 0 mm | - | - | - |
| 1777221061 | 18.33° C | 43% | 1020.7 hPa | 0 mm | - | - | - |
| 1777220461 | 16.67° C | 44% | 1020.5 hPa | 0 mm | - | - | - |
| 1777219862 | 17.22° C | 45% | 1020.5 hPa | 0 mm | - | - | - |
| 1777219262 | 16.11° C | 46% | 1020.9 hPa | 0 mm | - | - | - |
| 1777218662 | 16.11° C | 45% | 1020.8 hPa | 0 mm | - | - | - |
| 1777218062 | 15.56° C | 46% | 1020.8 hPa | 0 mm | - | - | - |
| 1777217462 | 16.11° C | 46% | 1020.8 hPa | 0 mm | - | - | - |
| 1777216861 | 16.67° C | 46% | 1020.9 hPa | 0 mm | - | - | - |
| 1777216261 | 17.22° C | 45% | 1020.8 hPa | 0 mm | - | - | - |
| 1777215661 | 17.22° C | 45% | 1020.8 hPa | 0 mm | - | - | - |
| 1777215061 | 15.56° C | 48% | 1020.9 hPa | 0 mm | - | - | - |
| 1777214462 | 16.11° C | 48% | 1020.8 hPa | 0 mm | - | - | - |
| 1777213862 | 16.11° C | 50% | 1020.8 hPa | 0 mm | - | - | - |
* Rain latest hour (hover to see other rain measurements)
** Current wind speed in m/s (hover to see current wind gust speed)